Aérodrome :
LOGIN :

S'inscrire | Disclaimer

   EN    FR    IT 

 










Légende :    VFR   VFR Marginal   IFR   IFR Intensif   IFR Très Intensif
Visi : 
Plafond : 
>= 8 km
>= 3000ft
5 à 8 km
1000 à 3000 ft
1500m à 5 km
500 à 1000 ft
800 à 1500m
200 à 500 ft
< 800m
< 200 ft
Symboles :   Orages  Brouillard  Fortes neiges  Fortes précipitations  Vent > 20 kt
SIGMETs :   Divers  Orages  Givrage  Turbulence  Onde Orograph.  Cendres Volcan.







- Altitude de l'aérodrome : 359 ft
- Code IATA : BVA
- Voir les cartes d'approche


LFOB - Beauvais

DERNIER METAR :
  • 221730Z AUTO 23009KT 9999 ///CB 23/12 Q1011 TEMPO 4000 TSRA NSC

METARs EXPIRÉS :
  • 221700Z AUTO 22012KT CAVOK 24/11 Q1011 NOSIG
  • 221630Z AUTO 23013KT CAVOK 25/11 Q1011 NOSIG
  • 221600Z AUTO 22013KT CAVOK 25/12 Q1011 NOSIG
  • 221530Z AUTO 22016KT CAVOK 25/12 Q1011 NOSIG
  • 221500Z AUTO 22013KT 190V260 CAVOK 26/11 Q1011 NOSIG

TAF TAF LFOB
Valide du 22 à 18h jusqu'au 23 à 18h UTC


221700Z 2218/2318 22015KT CAVOK
TEMPO 2219/2222 4000 TSRA BKN050CB
BECMG 2218/2220 29008KT
BECMG 2302/2304 OVC009
BECMG 2306/2308 BKN020
ATIS : +33 3 44 11 49 28
Pas de NOTAMs connus pour ce terrain.
1 SIGMET publié pour la FIR Paris (LFFF) :
 
Orages noyés dans la masse
LFFF SIGMET 3 VALID 221720/221900 LFPW
LFFF PARIS FIR/UIR EMBD TS FCST WI N4930 E00145 - N4815 E00200 - N4800 E00115 - N4915 E00045 - N4930 E00145 TOP FL250 MOV NE 20KT NC=



MET'MAP, la Météo Aéronautique d'un coup d'oeil ! - Copyright ORBIFLY Décembre 2007 - Disclaimer

ORBIFLY MET'MAP TEAM :

Programmation & Développement : Alexandra Zaïnal
Conception & Développement : Baudouin d'Aumeries
Co-Programmation & Développement : Marc-Olivier Méhu
Soutien technique & logistique : Manuel Goepfert

Contact : metmap@orbifly.com




SOURCES & CREDITS :

   NOAA